My webcam Meer informatie My webcam


Onweer radar Meer informatie blitzortung!


Regen radar Meer informatie rain snow radar


Bezoek ook deze websites:

Template documentation
and downloads

And another site

Leuven-Template Forum

support.leuven-template



Het weer levert geen direct gevaar op.    Er zijn geen waarschuwingen afgegeven.

METAR rapporten vliegvelden

   
EHVK - Volkel Rnlafb, Netherlands
Afstand tot: ZW 18 km
Gewijzigd: 05-12-2019 13:55
Verouderd
Nevel, Bewolking  
Nevel, Bewolking  
   Wind: ZZW 14.8 km/h
Wind: ZZW 14.8 km/h
Temperatuur: 3°C
Voelt als: -1°C
Dauwpunt: 2°C
Vochtigheid: 93%
Barometer: 1020 hPa
Bewolking: Bewolking
Zicht: 1 km
Bewolking: Bewolking 200 ft
EHVK 051255Z AUTO 21008KT 160V240 1100 R24R/1300N BR OVC002 03/02 Q1020 AMB 21007KT 1200 BR BKN002 OVC003
EDLV - Niederrhein, Germany
Afstand tot: ZO 25 km
Gewijzigd: 05-12-2019 15:50
Nevel, Grotendeels bewolkt  
Nevel, Grotendeels bewolkt  
   Wind: ZZW 14.8 km/h
Wind: ZZW 14.8 km/h
Temperatuur: 3°C
Voelt als: -1°C
Dauwpunt: 3°C
Vochtigheid: 100%
Barometer: 1019 hPa
Bewolking: Grotendeels bewolkt
Zicht: 2 km
Bewolking: Grotendeels bewolkt 500 ft
EDLV 051450Z 21008KT 1800 BR BKN005 03/03 Q1019
EHDL - Deelen Rnlafb, Netherlands
Afstand tot: N 35 km
Gewijzigd: 05-12-2019 15:55
Mist, Bewolking  
Mist, Bewolking  
   Wind: ZZW 16.7 km/h
Wind: ZZW 16.7 km/h
Temperatuur: 2°C
Voelt als: -2°C
Dauwpunt: 2°C
Vochtigheid: 100%
Barometer: 1018 hPa
Bewolking: Bewolking
Zicht: 1 km
Bewolking: Bewolking 100 ft
EHDL 051455Z AUTO 20009KT 140V250 0450 FG VV001 02/02 Q1018 RED
EHEH - Eindhoven Rnlafb, Netherlands
Afstand tot: ZW 48 km
Gewijzigd: 05-12-2019 15:55
Nevel, Bewolking  
Nevel, Bewolking  
   Wind: ZZW 16.7 km/h
Wind: ZZW 16.7 km/h
Temperatuur: 4°C
Voelt als: 0°C
Dauwpunt: 3°C
Vochtigheid: 93%
Barometer: 1020 hPa
Bewolking: Bewolking
Zicht: 5 km
Bewolking: Licht bewolkt 700 ft,
Bewolking 800 ft
EHEH 051455Z AUTO 21009KT 180V240 5000 BR FEW007 OVC008 04/03 Q1020 GRN 20008KT 4000 BR SCT008 BKN012 TEMPO SCT003 BKN007
EHGR - Gilze-Rijen Rnla, Netherlands
Afstand tot: WZW 70 km
Gewijzigd: 05-12-2019 15:59
Nevel, Bewolking  
Nevel, Bewolking  
   Wind: ZZW 16.7 km/h
Wind: ZZW 16.7 km/h
Temperatuur: 4°C
Voelt als: 0°C
Dauwpunt: 3°C
Vochtigheid: 93%
Barometer: 1019 hPa
Bewolking: Bewolking
Zicht: 4 km
Bewolking: Licht bewolkt 800 ft,
Bewolking 1000 ft
EHGR 051459Z AUTO 20009KT 160V240 3800 BR FEW008 OVC010 04/03 Q1019 GRN 20008KT 3000 BR FEW003 BKN004
EBBL - Kleine-Brogel(Ba, Belgium
Afstand tot: ZZW 71 km
Gewijzigd: 05-12-2019 15:55
Nevel, Grotendeels bewolkt  
Nevel, Grotendeels bewolkt  
   Wind: ZW 20.4 km/h
Wind: ZW 20.4 km/h
Temperatuur: 3°C
Voelt als: -2°C
Dauwpunt: 2°C
Vochtigheid: 93%
Barometer: 1020 hPa
Bewolking: Grotendeels bewolkt
Zicht: 4 km
Bewolking: Licht bewolkt 1100 ft,
Grotendeels bewolkt 1300 ft
EBBL 051455Z 23011KT 3800 BR FEW011 BKN013 03/02 Q1020 GRN GRN TEMPO YLO

Script ontwikkeld door  Saratoga-weather.org Aangepast voor de template door  Weerstation Leuven

U vindt ons ook hier:

Het Weer Aktueel

European Weather Network

WeatherCloud

Weather Underground

Benelux Weer Netwerk

AWEKAS

Apparatuur in gebruik:

Weerstation
Davis VP2

Weerprogramma
Meteobridge

Weercomputer
My Computer

Webleverancier
My provider

Davis VP2

Meteobridge

My Computer

My provider